createdAt,value
2023-04-14T00:04:52.877Z,97527.41
2023-04-14T00:10:20.702Z,97543.75
2023-04-14T00:15:44.716Z,97546.69
2023-04-14T00:21:09.743Z,97542.72
2023-04-14T00:26:36.731Z,97548.13
2023-04-14T00:32:01.737Z,97552.66
2023-04-14T00:37:25.761Z,97550.97
2023-04-14T00:43:02.725Z,97541.56
2023-04-14T00:48:28.705Z,97553.59
2023-04-14T00:53:53.714Z,97564.03
2023-04-14T00:59:22.755Z,97561.72
2023-04-14T01:04:54.233Z,97557.06
2023-04-14T01:10:20.743Z,97561.72
2023-04-14T01:15:54.805Z,97561.19
2023-04-14T01:21:24.715Z,97558.81
2023-04-14T01:26:49.765Z,97563.63
2023-04-14T01:32:20.737Z,97568.44
2023-04-14T01:37:47.740Z,97576.63
2023-04-14T01:43:22.829Z,97580.56
2023-04-14T01:48:49.769Z,97586.22
2023-04-14T01:54:17.761Z,97591.88
2023-04-14T01:59:44.744Z,97589.72
2023-04-14T02:05:13.795Z,97591.59
2023-04-14T02:10:40.756Z,97596.41
2023-04-14T02:16:08.798Z,97594.72
2023-04-14T02:21:39.759Z,97584.78
2023-04-14T02:27:11.917Z,97577.19
2023-04-14T02:32:40.795Z,97583.66
2023-04-14T02:38:16.745Z,97574.97
2023-04-14T02:43:46.754Z,97580.88
2023-04-14T02:49:13.042Z,97567.72
2023-04-14T02:54:41.796Z,97575.75
2023-04-14T03:00:08.801Z,97582.75
2023-04-14T03:05:39.774Z,97585.72
2023-04-14T03:11:09.800Z,97581.25
2023-04-14T03:16:36.834Z,97586.31
2023-04-14T03:22:02.778Z,97589.81
2023-04-14T03:27:36.807Z,97595.31
2023-04-14T03:33:03.833Z,97587.28
2023-04-14T03:38:32.820Z,97592.75
2023-04-14T03:44:09.815Z,97592.63
2023-04-14T03:49:39.786Z,97592.63
2023-04-14T03:55:09.818Z,97591.94
2023-04-14T04:00:38.880Z,97590.84
2023-04-14T04:06:04.868Z,97584.13
2023-04-14T04:11:30.826Z,97586.25
2023-04-14T04:16:58.841Z,97583.84
2023-04-14T04:22:26.829Z,97592.00
2023-04-14T04:27:52.844Z,97584.59
2023-04-14T04:33:20.827Z,97592.16
2023-04-14T04:38:47.968Z,97614.75
2023-04-14T04:44:18.869Z,97613.94
2023-04-14T04:49:46.825Z,97621.22
2023-04-14T04:55:10.904Z,97624.59
2023-04-14T05:00:41.845Z,97627.97
2023-04-14T05:06:10.845Z,97627.13
2023-04-14T05:11:35.882Z,97629.66
2023-04-14T05:17:00.855Z,97623.75
2023-04-14T05:22:28.846Z,97610.84
2023-04-14T05:27:53.859Z,97604.91
2023-04-14T05:33:17.839Z,97595.66
2023-04-14T05:38:46.858Z,97595.06
2023-04-14T05:44:17.921Z,97605.16
2023-04-14T05:49:42.870Z,97608.53
2023-04-14T05:55:10.858Z,97613.56
2023-04-14T06:00:36.863Z,97612.00
2023-04-14T06:06:00.879Z,97612.28
2023-04-14T06:11:28.868Z,97607.88
2023-04-14T06:16:54.048Z,97606.59
2023-04-14T06:22:23.918Z,97611.22
2023-04-14T06:27:50.862Z,97611.47
2023-04-14T06:33:15.855Z,97611.31
2023-04-14T06:38:39.859Z,97620.97
2023-04-14T06:44:07.916Z,97608.41
2023-04-14T06:49:31.904Z,97608.34
2023-04-14T06:54:56.885Z,97600.56
2023-04-14T07:00:24.953Z,97580.28
2023-04-14T07:05:49.900Z,97585.00
2023-04-14T07:11:16.891Z,97582.44
2023-04-14T07:16:44.918Z,97580.19
2023-04-14T07:22:08.917Z,97590.69
2023-04-14T07:27:35.931Z,97593.38
2023-04-14T07:33:04.043Z,97603.22
2023-04-14T07:38:28.905Z,97586.69
2023-04-14T07:44:03.022Z,97597.44
2023-04-14T07:49:31.940Z,97611.25
2023-04-14T07:54:57.105Z,97598.13
2023-04-14T08:00:24.097Z,97596.16
2023-04-14T08:05:51.956Z,97581.06
2023-04-14T08:11:17.738Z,97585.34
2023-04-14T08:16:43.858Z,97590.59
2023-04-14T08:22:11.907Z,97594.78
2023-04-14T08:27:36.102Z,97603.72
2023-04-14T08:33:00.970Z,97596.28
2023-04-14T08:38:30.169Z,97600.38
2023-04-14T08:44:03.936Z,97593.25
2023-04-14T08:49:39.931Z,97582.38
2023-04-14T08:55:08.915Z,97571.47
2023-04-14T09:00:34.947Z,97591.41
2023-04-14T09:06:00.055Z,97599.78
2023-04-14T09:11:30.449Z,97586.88
2023-04-14T09:16:57.976Z,97587.88
2023-04-14T09:22:24.647Z,97592.91
2023-04-14T09:27:54.273Z,97586.91
2023-04-14T09:33:28.986Z,97585.22
2023-04-14T09:38:53.976Z,97589.09
2023-04-14T09:44:28.012Z,97572.78
2023-04-14T09:50:04.980Z,97570.06
2023-04-14T09:55:33.118Z,97561.78
2023-04-14T10:01:01.071Z,97562.47
2023-04-14T10:06:30.968Z,97574.81
2023-04-14T10:11:55.996Z,97569.78
2023-04-14T10:22:51.002Z,97556.91
2023-04-14T10:28:16.967Z,97564.63
2023-04-14T10:33:46.210Z,97567.44
2023-04-14T10:39:16.001Z,97559.91
2023-04-14T10:44:43.009Z,97567.44
2023-04-14T10:50:15.209Z,97569.25
2023-04-14T10:55:54.990Z,97560.09
2023-04-14T11:01:39.022Z,97540.28
2023-04-14T11:07:08.011Z,97542.91
2023-04-14T11:12:41.259Z,97527.09
2023-04-14T11:18:21.084Z,97504.09
2023-04-14T11:23:49.341Z,97515.69
2023-04-14T11:29:18.193Z,97513.66
2023-04-14T11:34:43.012Z,97517.16
2023-04-14T11:40:12.052Z,97522.38
2023-04-14T11:45:38.081Z,97510.09
2023-04-14T11:51:09.022Z,97487.94
2023-04-14T11:56:37.025Z,97495.16
2023-04-14T12:02:05.094Z,97487.03
2023-04-14T12:07:32.057Z,97490.72
2023-04-14T12:13:00.052Z,97499.25
2023-04-14T12:18:26.038Z,97505.38
2023-04-14T12:23:51.048Z,97497.28
2023-04-14T12:29:18.046Z,97503.25
2023-04-14T12:34:43.065Z,97504.53
2023-04-14T12:40:13.091Z,97487.56
2023-04-14T12:45:49.082Z,97477.66
2023-04-14T12:51:24.057Z,97467.09
2023-04-14T12:56:57.061Z,97461.94
2023-04-14T13:02:25.183Z,97456.81
2023-04-14T13:07:49.087Z,97456.94
2023-04-14T13:13:14.095Z,97442.44
2023-04-14T13:18:41.086Z,97445.72
2023-04-14T13:24:06.069Z,97442.38
2023-04-14T13:29:30.082Z,97441.31
2023-04-14T13:34:59.098Z,97426.81
2023-04-14T13:40:25.103Z,97430.25
2023-04-14T13:45:50.205Z,97421.34
2023-04-14T13:51:17.087Z,97420.97
2023-04-14T13:56:48.075Z,97411.09
2023-04-14T14:02:13.180Z,97409.28
2023-04-14T14:07:40.080Z,97408.47
2023-04-14T14:13:05.187Z,97418.19
2023-04-14T14:18:29.375Z,97410.69
2023-04-14T14:23:57.107Z,97413.59
2023-04-14T14:29:22.225Z,97414.91
2023-04-14T14:34:47.507Z,97400.78
2023-04-14T14:40:15.113Z,97407.53
2023-04-14T14:45:40.410Z,97403.81
2023-04-14T14:51:06.394Z,97403.50
2023-04-14T14:56:34.066Z,97418.34
2023-04-14T15:02:01.267Z,97407.84
2023-04-14T15:07:26.060Z,97417.16
2023-04-14T15:12:53.128Z,97420.69
2023-04-14T15:18:18.111Z,97422.66
2023-04-14T15:23:46.486Z,97438.22
2023-04-14T15:29:15.450Z,97440.63
2023-04-14T15:34:40.198Z,97434.50
2023-04-14T15:40:05.229Z,97437.22
2023-04-14T15:45:32.204Z,97434.97
2023-04-14T15:50:57.154Z,97432.25
2023-04-14T15:56:22.188Z,97434.53
2023-04-14T16:01:56.310Z,97439.50
2023-04-14T16:07:21.188Z,97436.81
2023-04-14T16:12:46.929Z,97421.44
2023-04-14T16:18:16.191Z,97438.94
2023-04-14T16:23:41.222Z,97435.13
2023-04-14T16:29:07.214Z,97441.25
2023-04-14T16:34:34.228Z,97434.69
2023-04-14T16:40:03.374Z,97438.84
2023-04-14T16:45:28.205Z,97445.53
2023-04-14T16:50:56.248Z,97447.97
2023-04-14T16:56:21.194Z,97446.09
2023-04-14T17:01:46.445Z,97456.81
2023-04-14T17:07:13.215Z,97448.78
2023-04-14T17:12:38.263Z,97441.19
2023-04-14T17:18:02.179Z,97446.19
2023-04-14T17:23:31.234Z,97455.91
2023-04-14T17:28:55.173Z,97459.19
2023-04-14T17:34:25.187Z,97458.69
2023-04-14T17:39:52.189Z,97459.22
2023-04-14T17:45:18.233Z,97459.22
2023-04-14T17:50:42.237Z,97475.84
2023-04-14T17:56:10.211Z,97461.94
2023-04-14T18:01:35.276Z,97459.25
2023-04-14T18:07:00.260Z,97450.53
2023-04-14T18:12:29.235Z,97451.91
2023-04-14T18:18:02.292Z,97462.47
2023-04-14T18:23:27.218Z,97469.34
2023-04-14T18:28:54.224Z,97469.69
2023-04-14T18:34:20.239Z,97476.03
2023-04-14T18:39:47.246Z,97483.09
2023-04-14T18:45:16.228Z,97473.53
2023-04-14T18:50:40.301Z,97477.72
2023-04-14T18:56:05.245Z,97480.91
2023-04-14T19:01:33.530Z,97479.38
2023-04-14T19:06:59.249Z,97485.59
2023-04-14T19:12:28.455Z,97484.09
2023-04-14T19:17:56.362Z,97496.63
2023-04-14T19:23:20.290Z,97506.50
2023-04-14T19:28:46.251Z,97511.19
2023-04-14T19:34:13.242Z,97502.81
2023-04-14T19:39:38.297Z,97510.16
2023-04-14T19:45:03.252Z,97502.06
2023-04-14T19:50:32.285Z,97504.03
2023-04-14T19:55:50.261Z,97512.34
2023-04-14T20:01:21.405Z,97502.50
2023-04-14T20:06:49.271Z,97505.31
2023-04-14T20:12:15.281Z,97497.97
2023-04-14T20:17:40.309Z,97501.00
2023-04-14T20:23:08.279Z,97497.16
2023-04-14T20:28:35.369Z,97490.06
2023-04-14T20:34:00.286Z,97484.50
2023-04-14T20:39:28.296Z,97481.47
2023-04-14T20:44:53.308Z,97488.66
2023-04-14T20:50:19.277Z,97481.06
2023-04-14T20:55:48.302Z,97487.03
2023-04-14T21:01:20.375Z,97490.69
2023-04-14T21:06:45.345Z,97482.50
2023-04-14T21:12:14.266Z,97490.06
2023-04-14T21:17:41.314Z,97490.19
2023-04-14T21:23:07.324Z,97497.56
2023-04-14T21:28:35.309Z,97500.91
2023-04-14T21:33:59.376Z,97492.66
2023-04-14T21:39:24.342Z,97507.72
2023-04-14T21:44:51.319Z,97512.09
2023-04-14T21:50:18.351Z,97504.75
2023-04-14T21:55:43.309Z,97509.28
2023-04-14T22:01:18.425Z,97495.72
2023-04-14T22:06:44.351Z,97488.69
2023-04-14T22:12:08.411Z,97494.91
2023-04-14T22:17:36.375Z,97494.34
2023-04-14T22:23:01.344Z,97487.50
2023-04-14T22:28:26.343Z,97503.06
2023-04-14T22:33:53.341Z,97494.34
2023-04-14T22:39:18.436Z,97484.66
2023-04-14T22:44:43.351Z,97489.16
2023-04-14T22:50:11.368Z,97491.31
2023-04-14T22:55:35.360Z,97486.97
2023-04-14T23:01:12.392Z,97479.63
2023-04-14T23:06:43.357Z,97469.06
2023-04-14T23:12:08.346Z,97472.09
2023-04-14T23:17:34.496Z,97468.41
2023-04-14T23:23:01.340Z,97458.34
2023-04-14T23:28:26.348Z,97461.31
2023-04-14T23:33:51.350Z,97464.38
2023-04-14T23:39:19.418Z,97461.88
2023-04-14T23:44:44.409Z,97461.31
2023-04-14T23:50:09.400Z,97460.84
2023-04-14T23:55:36.386Z,97450.78
